Ceredo, WV (25507)

12:40 AM EDT on May 24, 2015 (GMT -0400)
Kenova | | Change Station
CLOSE
Current Station
Personal Weather Station
Location: Kenova, WV
Elevation: 554 ft
Nearby Weather Stations

Elev 554 ft 38.40 °N, 82.57 °W | Updated 13 minutes ago

Clear
Clear
58.8 °F
Feels Like 58.8 °F
N
1.6
Wind Variable Wind from South

Today
High -- | Low -- °F
--% Chance of Precip.
Yesterday
High -- | Low -- °F
Precip. -- in
6:12 AM 8:42 PM
Waxing Crescent, 35% visible
Pressure 30.30 in
Visibility 10.0 miles
Clouds Clear
Dew Point 50 °F
Humidity 72%
Rainfall 0.00 in
Snow Depth Not available.
UV 0 out of 12
Pollen 8.00 out of 12
Air Quality Not available.
Flu Activity Sporadic
METAR KHTS 240351Z 00000KT 10SM CLR 14/11 A3031 RMK AO2 SLP261 T01390106

More Conditions Fewer Conditions

Pressure 30.30 in
Visibility 10.0 miles
Clouds Clear
Dew Point 50 °F
Humidity 72%
Rainfall 0.00 in
Snow Depth Not available.
UV 0 out of 12
Pollen 8.00 out of 12
Air Quality Not available.
Flu Activity Sporadic
METAR KHTS 240351Z 00000KT 10SM CLR 14/11 A3031 RMK AO2 SLP261 T01390106

More Conditions Fewer Conditions

10-Day Weather Forecast

Almanac

Astronomy

May. 24, 2015 Rise Set
Actual Time
Civil Twilight
Nautical Twilight
Astronomical Twilight
Moon
Length of Visible Light
Length of Day
Tomorrow will be .
, % of the Moon is Illuminated

Today's Extremes

State Highs State Lows

Community

WunderPhotos

Upload Photos

1,823,688 photos uploaded!

WunderBlogs® & News

Nearby

Air Quality

  Air Quality AQ Index Pollutant
Not available.

Snow Depth

Station Depth Elevation

Earthquake Activity

City Distance Mag. Time & Date
Minimum magnitude displayed is 2.5.

Coastal Water Temperatures

Place Temperature

Stations

Nearby Weather Stations

Station Location Temp. Windchill Dew Point Humidity Wind Precip. Elev Updated Type